sensor_id;sensor_type;location;lat;lon;timestamp;P1;durP1;ratioP1;P2;durP2;ratioP2
40322;SDS011;26030;51.164;17.100;2023-08-20T00:02:45;15.40;;;14.00;;
40322;SDS011;26030;51.164;17.100;2023-08-20T00:07:48;15.50;;;14.10;;
40322;SDS011;26030;51.164;17.100;2023-08-20T00:12:51;17.40;;;14.30;;
40322;SDS011;26030;51.164;17.100;2023-08-20T00:17:55;16.00;;;14.50;;
40322;SDS011;26030;51.164;17.100;2023-08-20T00:22:58;15.50;;;14.00;;
40322;SDS011;26030;51.164;17.100;2023-08-20T00:28:01;15.10;;;13.60;;
40322;SDS011;26030;51.164;17.100;2023-08-20T00:33:04;15.70;;;14.20;;
40322;SDS011;26030;51.164;17.100;2023-08-20T00:38:07;14.60;;;13.40;;
40322;SDS011;26030;51.164;17.100;2023-08-20T00:43:10;14.60;;;13.20;;
40322;SDS011;26030;51.164;17.100;2023-08-20T00:48:15;14.80;;;13.40;;
40322;SDS011;26030;51.164;17.100;2023-08-20T00:53:18;14.30;;;13.10;;
40322;SDS011;26030;51.164;17.100;2023-08-20T00:58:21;14.50;;;13.30;;
40322;SDS011;26030;51.164;17.100;2023-08-20T01:03:24;14.10;;;12.80;;
40322;SDS011;26030;51.164;17.100;2023-08-20T01:08:40;13.70;;;12.50;;
40322;SDS011;26030;51.164;17.100;2023-08-20T01:13:43;13.40;;;12.20;;
40322;SDS011;26030;51.164;17.100;2023-08-20T01:18:48;13.00;;;11.90;;
40322;SDS011;26030;51.164;17.100;2023-08-20T01:29:12;12.20;;;11.20;;
40322;SDS011;26030;51.164;17.100;2023-08-20T01:34:15;13.20;;;12.00;;
40322;SDS011;26030;51.164;17.100;2023-08-20T01:39:20;13.00;;;11.80;;
40322;SDS011;26030;51.164;17.100;2023-08-20T01:44:23;12.00;;;11.10;;
40322;SDS011;26030;51.164;17.100;2023-08-20T01:49:26;11.20;;;10.20;;
40322;SDS011;26030;51.164;17.100;2023-08-20T01:54:29;11.40;;;10.40;;
40322;SDS011;26030;51.164;17.100;2023-08-20T01:59:32;12.30;;;11.30;;
40322;SDS011;26030;51.164;17.100;2023-08-20T02:04:35;11.70;;;10.70;;
40322;SDS011;26030;51.164;17.100;2023-08-20T02:09:37;12.00;;;10.90;;
40322;SDS011;26030;51.164;17.100;2023-08-20T02:14:40;11.60;;;10.50;;
40322;SDS011;26030;51.164;17.100;2023-08-20T02:19:43;12.20;;;10.40;;
40322;SDS011;26030;51.164;17.100;2023-08-20T02:24:46;11.10;;;10.10;;
40322;SDS011;26030;51.164;17.100;2023-08-20T02:29:51;11.20;;;10.20;;
40322;SDS011;26030;51.164;17.100;2023-08-20T02:34:54;11.00;;;10.20;;
40322;SDS011;26030;51.164;17.100;2023-08-20T02:40:01;10.80;;;9.90;;
40322;SDS011;26030;51.164;17.100;2023-08-20T02:45:04;11.10;;;10.00;;
40322;SDS011;26030;51.164;17.100;2023-08-20T02:50:07;11.60;;;10.60;;
40322;SDS011;26030;51.164;17.100;2023-08-20T02:55:10;11.20;;;10.10;;
40322;SDS011;26030;51.164;17.100;2023-08-20T03:00:13;12.00;;;11.00;;
40322;SDS011;26030;51.164;17.100;2023-08-20T03:05:16;11.10;;;10.00;;
40322;SDS011;26030;51.164;17.100;2023-08-20T03:10:19;11.60;;;10.70;;
40322;SDS011;26030;51.164;17.100;2023-08-20T03:15:22;10.40;;;9.60;;
40322;SDS011;26030;51.164;17.100;2023-08-20T03:20:25;11.60;;;10.70;;
40322;SDS011;26030;51.164;17.100;2023-08-20T03:25:28;11.90;;;11.00;;
40322;SDS011;26030;51.164;17.100;2023-08-20T03:30:30;10.70;;;9.90;;
40322;SDS011;26030;51.164;17.100;2023-08-20T03:35:34;10.40;;;9.50;;
40322;SDS011;26030;51.164;17.100;2023-08-20T03:40:40;11.20;;;10.10;;
40322;SDS011;26030;51.164;17.100;2023-08-20T03:45:50;10.40;;;9.50;;
40322;SDS011;26030;51.164;17.100;2023-08-20T03:50:54;11.10;;;10.00;;
40322;SDS011;26030;51.164;17.100;2023-08-20T03:55:57;10.40;;;9.50;;
40322;SDS011;26030;51.164;17.100;2023-08-20T04:00:59;10.20;;;9.20;;
40322;SDS011;26030;51.164;17.100;2023-08-20T04:06:02;10.80;;;9.90;;
40322;SDS011;26030;51.164;17.100;2023-08-20T04:11:06;10.50;;;9.50;;
40322;SDS011;26030;51.164;17.100;2023-08-20T04:16:10;10.30;;;9.60;;
40322;SDS011;26030;51.164;17.100;2023-08-20T04:21:13;10.30;;;9.50;;
40322;SDS011;26030;51.164;17.100;2023-08-20T04:26:16;10.30;;;9.40;;
40322;SDS011;26030;51.164;17.100;2023-08-20T04:31:19;10.60;;;9.70;;
40322;SDS011;26030;51.164;17.100;2023-08-20T04:36:27;9.30;;;8.60;;
40322;SDS011;26030;51.164;17.100;2023-08-20T04:41:30;9.10;;;8.40;;
40322;SDS011;26030;51.164;17.100;2023-08-20T04:46:33;9.80;;;9.00;;
40322;SDS011;26030;51.164;17.100;2023-08-20T04:51:36;8.90;;;8.20;;
40322;SDS011;26030;51.164;17.100;2023-08-20T04:56:43;9.10;;;8.40;;
40322;SDS011;26030;51.164;17.100;2023-08-20T05:01:46;9.60;;;8.40;;
40322;SDS011;26030;51.164;17.100;2023-08-20T05:06:49;9.50;;;8.60;;
40322;SDS011;26030;51.164;17.100;2023-08-20T05:11:54;8.70;;;8.00;;
40322;SDS011;26030;51.164;17.100;2023-08-20T05:16:57;10.70;;;8.30;;
40322;SDS011;26030;51.164;17.100;2023-08-20T05:22:00;9.50;;;8.60;;
40322;SDS011;26030;51.164;17.100;2023-08-20T05:27:12;9.00;;;8.40;;
40322;SDS011;26030;51.164;17.100;2023-08-20T05:37:20;8.90;;;8.30;;
40322;SDS011;26030;51.164;17.100;2023-08-20T05:42:23;8.90;;;8.10;;
40322;SDS011;26030;51.164;17.100;2023-08-20T05:47:29;9.10;;;8.40;;
40322;SDS011;26030;51.164;17.100;2023-08-20T05:52:32;9.10;;;8.40;;
40322;SDS011;26030;51.164;17.100;2023-08-20T05:57:36;9.40;;;8.80;;
40322;SDS011;26030;51.164;17.100;2023-08-20T06:02:39;9.90;;;9.10;;
40322;SDS011;26030;51.164;17.100;2023-08-20T06:07:43;10.60;;;9.70;;
40322;SDS011;26030;51.164;17.100;2023-08-20T06:12:46;9.50;;;8.90;;
40322;SDS011;26030;51.164;17.100;2023-08-20T06:17:48;9.70;;;9.00;;
40322;SDS011;26030;51.164;17.100;2023-08-20T06:22:51;10.20;;;9.50;;
40322;SDS011;26030;51.164;17.100;2023-08-20T06:27:54;10.00;;;9.30;;
40322;SDS011;26030;51.164;17.100;2023-08-20T06:32:57;9.90;;;8.90;;
40322;SDS011;26030;51.164;17.100;2023-08-20T06:38:00;9.80;;;9.00;;
40322;SDS011;26030;51.164;17.100;2023-08-20T06:43:03;9.90;;;9.20;;
40322;SDS011;26030;51.164;17.100;2023-08-20T06:48:06;8.90;;;8.30;;
40322;SDS011;26030;51.164;17.100;2023-08-20T06:53:09;9.90;;;9.10;;
40322;SDS011;26030;51.164;17.100;2023-08-20T06:58:12;9.80;;;8.80;;
40322;SDS011;26030;51.164;17.100;2023-08-20T07:03:14;9.70;;;8.80;;
40322;SDS011;26030;51.164;17.100;2023-08-20T07:08:18;9.50;;;8.80;;
40322;SDS011;26030;51.164;17.100;2023-08-20T07:13:22;10.10;;;9.40;;
40322;SDS011;26030;51.164;17.100;2023-08-20T07:18:25;9.70;;;9.00;;
40322;SDS011;26030;51.164;17.100;2023-08-20T07:23:28;9.30;;;8.60;;
40322;SDS011;26030;51.164;17.100;2023-08-20T07:28:31;10.40;;;9.50;;
40322;SDS011;26030;51.164;17.100;2023-08-20T07:33:54;9.30;;;8.60;;
40322;SDS011;26030;51.164;17.100;2023-08-20T07:38:57;9.40;;;8.60;;
40322;SDS011;26030;51.164;17.100;2023-08-20T07:44:00;9.80;;;9.00;;
40322;SDS011;26030;51.164;17.100;2023-08-20T07:49:03;9.80;;;9.10;;
40322;SDS011;26030;51.164;17.100;2023-08-20T07:54:06;9.40;;;8.70;;
40322;SDS011;26030;51.164;17.100;2023-08-20T07:59:09;10.50;;;9.50;;
40322;SDS011;26030;51.164;17.100;2023-08-20T08:04:11;9.80;;;9.00;;
40322;SDS011;26030;51.164;17.100;2023-08-20T08:09:27;10.40;;;9.60;;
40322;SDS011;26030;51.164;17.100;2023-08-20T08:14:30;10.30;;;9.50;;
40322;SDS011;26030;51.164;17.100;2023-08-20T08:19:33;10.90;;;10.10;;
40322;SDS011;26030;51.164;17.100;2023-08-20T08:24:36;10.20;;;9.50;;
40322;SDS011;26030;51.164;17.100;2023-08-20T08:29:38;10.70;;;9.80;;
40322;SDS011;26030;51.164;17.100;2023-08-20T08:34:42;10.90;;;10.00;;
40322;SDS011;26030;51.164;17.100;2023-08-20T08:39:44;10.20;;;9.40;;
40322;SDS011;26030;51.164;17.100;2023-08-20T08:44:48;9.70;;;9.00;;
40322;SDS011;26030;51.164;17.100;2023-08-20T08:49:55;10.30;;;9.60;;
40322;SDS011;26030;51.164;17.100;2023-08-20T08:54:58;10.50;;;9.60;;
40322;SDS011;26030;51.164;17.100;2023-08-20T09:00:08;10.20;;;9.40;;
40322;SDS011;26030;51.164;17.100;2023-08-20T09:05:15;9.80;;;9.10;;
40322;SDS011;26030;51.164;17.100;2023-08-20T09:10:19;9.90;;;9.20;;
40322;SDS011;26030;51.164;17.100;2023-08-20T09:15:22;10.20;;;9.40;;
40322;SDS011;26030;51.164;17.100;2023-08-20T09:20:35;9.60;;;8.90;;
40322;SDS011;26030;51.164;17.100;2023-08-20T09:25:38;9.50;;;8.80;;
40322;SDS011;26030;51.164;17.100;2023-08-20T09:30:54;9.00;;;8.40;;
40322;SDS011;26030;51.164;17.100;2023-08-20T09:35:57;8.70;;;8.10;;
40322;SDS011;26030;51.164;17.100;2023-08-20T09:41:01;9.40;;;8.80;;
40322;SDS011;26030;51.164;17.100;2023-08-20T09:46:05;9.80;;;9.00;;
40322;SDS011;26030;51.164;17.100;2023-08-20T09:51:11;9.40;;;8.70;;
40322;SDS011;26030;51.164;17.100;2023-08-20T09:56:37;9.00;;;8.30;;
40322;SDS011;26030;51.164;17.100;2023-08-20T10:01:41;9.50;;;8.90;;
40322;SDS011;26030;51.164;17.100;2023-08-20T10:06:44;9.00;;;8.30;;
40322;SDS011;26030;51.164;17.100;2023-08-20T10:11:47;9.50;;;8.80;;
40322;SDS011;26030;51.164;17.100;2023-08-20T10:16:51;8.50;;;7.90;;
40322;SDS011;26030;51.164;17.100;2023-08-20T10:21:56;9.40;;;8.60;;
40322;SDS011;26030;51.164;17.100;2023-08-20T10:27:12;8.30;;;7.80;;
40322;SDS011;26030;51.164;17.100;2023-08-20T10:32:14;9.40;;;8.70;;
40322;SDS011;26030;51.164;17.100;2023-08-20T10:37:26;8.90;;;8.20;;
40322;SDS011;26030;51.164;17.100;2023-08-20T10:42:41;8.30;;;7.80;;
40322;SDS011;26030;51.164;17.100;2023-08-20T10:47:47;9.10;;;8.50;;
40322;SDS011;26030;51.164;17.100;2023-08-20T10:52:55;8.60;;;8.00;;
40322;SDS011;26030;51.164;17.100;2023-08-20T10:57:58;8.20;;;7.60;;
40322;SDS011;26030;51.164;17.100;2023-08-20T11:03:05;8.90;;;8.20;;
40322;SDS011;26030;51.164;17.100;2023-08-20T11:08:09;9.60;;;8.90;;
40322;SDS011;26030;51.164;17.100;2023-08-20T11:13:11;8.20;;;7.60;;
40322;SDS011;26030;51.164;17.100;2023-08-20T11:18:16;8.40;;;7.80;;
40322;SDS011;26030;51.164;17.100;2023-08-20T11:23:22;8.60;;;8.00;;
40322;SDS011;26030;51.164;17.100;2023-08-20T11:28:26;8.80;;;8.20;;
40322;SDS011;26030;51.164;17.100;2023-08-20T11:33:29;8.40;;;7.80;;
40322;SDS011;26030;51.164;17.100;2023-08-20T11:38:32;8.60;;;7.80;;
40322;SDS011;26030;51.164;17.100;2023-08-20T11:43:36;8.30;;;7.70;;
40322;SDS011;26030;51.164;17.100;2023-08-20T11:48:58;8.20;;;7.20;;
40322;SDS011;26030;51.164;17.100;2023-08-20T11:54:01;8.40;;;7.70;;
40322;SDS011;26030;51.164;17.100;2023-08-20T11:59:04;9.60;;;8.60;;
40322;SDS011;26030;51.164;17.100;2023-08-20T12:04:09;8.70;;;8.10;;
40322;SDS011;26030;51.164;17.100;2023-08-20T12:09:22;8.10;;;7.60;;
40322;SDS011;26030;51.164;17.100;2023-08-20T12:14:26;8.70;;;8.00;;
40322;SDS011;26030;51.164;17.100;2023-08-20T12:19:29;8.40;;;7.80;;
40322;SDS011;26030;51.164;17.100;2023-08-20T12:24:32;8.40;;;7.80;;
40322;SDS011;26030;51.164;17.100;2023-08-20T12:29:34;8.60;;;7.90;;
40322;SDS011;26030;51.164;17.100;2023-08-20T12:34:37;7.70;;;7.20;;
40322;SDS011;26030;51.164;17.100;2023-08-20T12:39:42;8.10;;;7.60;;
40322;SDS011;26030;51.164;17.100;2023-08-20T12:44:44;7.80;;;7.30;;
40322;SDS011;26030;51.164;17.100;2023-08-20T12:49:47;8.40;;;7.80;;
40322;SDS011;26030;51.164;17.100;2023-08-20T12:54:51;9.30;;;8.60;;
40322;SDS011;26030;51.164;17.100;2023-08-20T12:59:53;8.90;;;8.20;;
40322;SDS011;26030;51.164;17.100;2023-08-20T13:04:57;8.00;;;7.50;;
40322;SDS011;26030;51.164;17.100;2023-08-20T13:10:01;8.30;;;7.80;;
40322;SDS011;26030;51.164;17.100;2023-08-20T13:15:06;7.60;;;7.10;;
40322;SDS011;26030;51.164;17.100;2023-08-20T13:20:12;8.80;;;8.20;;
40322;SDS011;26030;51.164;17.100;2023-08-20T13:25:16;7.40;;;7.00;;
40322;SDS011;26030;51.164;17.100;2023-08-20T13:30:19;7.50;;;7.00;;
40322;SDS011;26030;51.164;17.100;2023-08-20T13:35:22;8.00;;;7.40;;
40322;SDS011;26030;51.164;17.100;2023-08-20T13:40:25;7.30;;;6.90;;
40322;SDS011;26030;51.164;17.100;2023-08-20T13:45:28;8.10;;;7.50;;
40322;SDS011;26030;51.164;17.100;2023-08-20T13:50:31;7.20;;;6.70;;
40322;SDS011;26030;51.164;17.100;2023-08-20T13:55:35;7.10;;;6.70;;
40322;SDS011;26030;51.164;17.100;2023-08-20T14:00:39;6.90;;;6.50;;
40322;SDS011;26030;51.164;17.100;2023-08-20T14:05:43;6.90;;;6.40;;
40322;SDS011;26030;51.164;17.100;2023-08-20T14:10:48;7.70;;;7.10;;
40322;SDS011;26030;51.164;17.100;2023-08-20T14:15:52;6.80;;;6.40;;
40322;SDS011;26030;51.164;17.100;2023-08-20T14:20:56;7.70;;;7.20;;
40322;SDS011;26030;51.164;17.100;2023-08-20T14:25:59;7.00;;;6.50;;
40322;SDS011;26030;51.164;17.100;2023-08-20T14:31:03;6.90;;;6.50;;
40322;SDS011;26030;51.164;17.100;2023-08-20T14:36:06;6.80;;;6.30;;
40322;SDS011;26030;51.164;17.100;2023-08-20T14:41:09;7.80;;;7.10;;
40322;SDS011;26030;51.164;17.100;2023-08-20T14:46:12;7.40;;;6.90;;
40322;SDS011;26030;51.164;17.100;2023-08-20T14:51:16;6.90;;;6.40;;
40322;SDS011;26030;51.164;17.100;2023-08-20T14:56:18;6.70;;;6.30;;
40322;SDS011;26030;51.164;17.100;2023-08-20T15:01:22;7.20;;;6.50;;
40322;SDS011;26030;51.164;17.100;2023-08-20T15:06:25;7.30;;;6.80;;
40322;SDS011;26030;51.164;17.100;2023-08-20T15:11:31;6.90;;;6.50;;
40322;SDS011;26030;51.164;17.100;2023-08-20T15:16:34;6.90;;;6.40;;
40322;SDS011;26030;51.164;17.100;2023-08-20T15:21:37;6.80;;;6.40;;
40322;SDS011;26030;51.164;17.100;2023-08-20T15:26:40;7.20;;;6.70;;
40322;SDS011;26030;51.164;17.100;2023-08-20T15:31:43;7.00;;;6.50;;
40322;SDS011;26030;51.164;17.100;2023-08-20T15:36:47;7.00;;;6.50;;
40322;SDS011;26030;51.164;17.100;2023-08-20T15:41:51;6.70;;;6.20;;
40322;SDS011;26030;51.164;17.100;2023-08-20T15:46:54;6.20;;;5.80;;
40322;SDS011;26030;51.164;17.100;2023-08-20T15:51:57;6.50;;;6.10;;
40322;SDS011;26030;51.164;17.100;2023-08-20T15:57:00;6.40;;;5.90;;
40322;SDS011;26030;51.164;17.100;2023-08-20T16:02:03;7.50;;;7.00;;
40322;SDS011;26030;51.164;17.100;2023-08-20T16:07:07;6.50;;;6.10;;
40322;SDS011;26030;51.164;17.100;2023-08-20T16:12:10;6.70;;;6.30;;
40322;SDS011;26030;51.164;17.100;2023-08-20T16:17:13;6.80;;;6.40;;
40322;SDS011;26030;51.164;17.100;2023-08-20T16:22:16;6.40;;;6.00;;
40322;SDS011;26030;51.164;17.100;2023-08-20T16:27:20;6.50;;;6.10;;
40322;SDS011;26030;51.164;17.100;2023-08-20T16:32:23;5.90;;;5.50;;
40322;SDS011;26030;51.164;17.100;2023-08-20T16:37:27;6.50;;;6.10;;
40322;SDS011;26030;51.164;17.100;2023-08-20T16:42:31;7.10;;;6.60;;
40322;SDS011;26030;51.164;17.100;2023-08-20T16:47:35;6.30;;;5.90;;
40322;SDS011;26030;51.164;17.100;2023-08-20T16:52:39;7.10;;;6.60;;
40322;SDS011;26030;51.164;17.100;2023-08-20T16:57:43;7.50;;;7.00;;
40322;SDS011;26030;51.164;17.100;2023-08-20T17:02:47;6.60;;;6.20;;
40322;SDS011;26030;51.164;17.100;2023-08-20T17:07:50;7.10;;;6.60;;
40322;SDS011;26030;51.164;17.100;2023-08-20T17:12:54;6.70;;;6.20;;
40322;SDS011;26030;51.164;17.100;2023-08-20T17:17:59;6.70;;;6.30;;
40322;SDS011;26030;51.164;17.100;2023-08-20T17:23:03;6.50;;;6.10;;
40322;SDS011;26030;51.164;17.100;2023-08-20T17:28:08;6.80;;;6.30;;
40322;SDS011;26030;51.164;17.100;2023-08-20T17:33:12;6.50;;;5.90;;
40322;SDS011;26030;51.164;17.100;2023-08-20T17:38:18;6.80;;;6.30;;
40322;SDS011;26030;51.164;17.100;2023-08-20T17:43:23;6.60;;;6.20;;
40322;SDS011;26030;51.164;17.100;2023-08-20T17:48:26;7.30;;;6.80;;
40322;SDS011;26030;51.164;17.100;2023-08-20T17:53:33;8.50;;;7.80;;
40322;SDS011;26030;51.164;17.100;2023-08-20T17:58:36;7.10;;;6.50;;
40322;SDS011;26030;51.164;17.100;2023-08-20T18:03:40;7.80;;;7.20;;
40322;SDS011;26030;51.164;17.100;2023-08-20T18:08:44;7.50;;;7.00;;
40322;SDS011;26030;51.164;17.100;2023-08-20T18:13:48;8.10;;;7.50;;
40322;SDS011;26030;51.164;17.100;2023-08-20T18:18:51;7.90;;;7.40;;
40322;SDS011;26030;51.164;17.100;2023-08-20T18:23:55;8.20;;;7.60;;
40322;SDS011;26030;51.164;17.100;2023-08-20T18:29:00;8.20;;;7.60;;
40322;SDS011;26030;51.164;17.100;2023-08-20T18:34:03;7.80;;;7.30;;
40322;SDS011;26030;51.164;17.100;2023-08-20T18:39:07;8.10;;;7.50;;
40322;SDS011;26030;51.164;17.100;2023-08-20T18:44:13;8.10;;;7.50;;
40322;SDS011;26030;51.164;17.100;2023-08-20T18:49:18;8.30;;;7.80;;
40322;SDS011;26030;51.164;17.100;2023-08-20T18:54:22;8.20;;;7.60;;
40322;SDS011;26030;51.164;17.100;2023-08-20T18:59:26;8.40;;;7.80;;
40322;SDS011;26030;51.164;17.100;2023-08-20T19:04:30;9.20;;;8.40;;
40322;SDS011;26030;51.164;17.100;2023-08-20T19:09:34;8.50;;;7.90;;
40322;SDS011;26030;51.164;17.100;2023-08-20T19:14:38;7.90;;;7.30;;
40322;SDS011;26030;51.164;17.100;2023-08-20T19:19:44;9.20;;;8.50;;
40322;SDS011;26030;51.164;17.100;2023-08-20T19:24:48;9.30;;;8.40;;
40322;SDS011;26030;51.164;17.100;2023-08-20T19:29:52;8.90;;;8.20;;
40322;SDS011;26030;51.164;17.100;2023-08-20T19:34:57;8.30;;;7.60;;
40322;SDS011;26030;51.164;17.100;2023-08-20T19:40:01;9.30;;;8.60;;
40322;SDS011;26030;51.164;17.100;2023-08-20T19:45:13;8.90;;;8.20;;
40322;SDS011;26030;51.164;17.100;2023-08-20T19:50:17;9.10;;;8.20;;
40322;SDS011;26030;51.164;17.100;2023-08-20T19:55:23;8.60;;;8.00;;
40322;SDS011;26030;51.164;17.100;2023-08-20T20:00:27;9.40;;;8.70;;
40322;SDS011;26030;51.164;17.100;2023-08-20T20:05:34;9.00;;;8.20;;
40322;SDS011;26030;51.164;17.100;2023-08-20T20:10:38;9.80;;;8.80;;
40322;SDS011;26030;51.164;17.100;2023-08-20T20:15:43;8.80;;;8.20;;
40322;SDS011;26030;51.164;17.100;2023-08-20T20:20:47;8.90;;;8.10;;
40322;SDS011;26030;51.164;17.100;2023-08-20T20:25:56;9.40;;;8.50;;
40322;SDS011;26030;51.164;17.100;2023-08-20T20:31:01;8.60;;;7.80;;
40322;SDS011;26030;51.164;17.100;2023-08-20T20:36:04;8.70;;;7.90;;
40322;SDS011;26030;51.164;17.100;2023-08-20T20:41:11;8.70;;;7.90;;
40322;SDS011;26030;51.164;17.100;2023-08-20T20:46:18;9.00;;;8.20;;
40322;SDS011;26030;51.164;17.100;2023-08-20T20:51:22;9.00;;;8.30;;
40322;SDS011;26030;51.164;17.100;2023-08-20T20:56:25;8.80;;;8.00;;
40322;SDS011;26030;51.164;17.100;2023-08-20T21:01:31;9.70;;;8.90;;
40322;SDS011;26030;51.164;17.100;2023-08-20T21:06:34;9.20;;;8.50;;
40322;SDS011;26030;51.164;17.100;2023-08-20T21:11:37;9.20;;;8.50;;
40322;SDS011;26030;51.164;17.100;2023-08-20T21:16:42;8.90;;;8.20;;
40322;SDS011;26030;51.164;17.100;2023-08-20T21:21:46;10.10;;;9.30;;
40322;SDS011;26030;51.164;17.100;2023-08-20T21:26:48;8.90;;;8.20;;
40322;SDS011;26030;51.164;17.100;2023-08-20T21:31:51;8.80;;;8.00;;
40322;SDS011;26030;51.164;17.100;2023-08-20T21:36:54;8.60;;;8.00;;
40322;SDS011;26030;51.164;17.100;2023-08-20T21:41:57;8.40;;;7.80;;
40322;SDS011;26030;51.164;17.100;2023-08-20T21:47:00;9.10;;;8.50;;
40322;SDS011;26030;51.164;17.100;2023-08-20T21:52:21;9.20;;;8.50;;
40322;SDS011;26030;51.164;17.100;2023-08-20T21:57:24;8.40;;;7.30;;
40322;SDS011;26030;51.164;17.100;2023-08-20T22:02:27;8.20;;;7.60;;
40322;SDS011;26030;51.164;17.100;2023-08-20T22:07:30;8.90;;;8.10;;
40322;SDS011;26030;51.164;17.100;2023-08-20T22:12:32;8.70;;;7.90;;
40322;SDS011;26030;51.164;17.100;2023-08-20T22:17:36;8.40;;;7.80;;
40322;SDS011;26030;51.164;17.100;2023-08-20T22:22:40;8.60;;;8.00;;
40322;SDS011;26030;51.164;17.100;2023-08-20T22:27:43;8.30;;;7.70;;
40322;SDS011;26030;51.164;17.100;2023-08-20T22:32:46;9.30;;;8.40;;
40322;SDS011;26030;51.164;17.100;2023-08-20T22:38:07;8.10;;;7.20;;
40322;SDS011;26030;51.164;17.100;2023-08-20T22:43:10;8.30;;;7.70;;
40322;SDS011;26030;51.164;17.100;2023-08-20T22:48:13;7.40;;;6.80;;
40322;SDS011;26030;51.164;17.100;2023-08-20T22:53:16;8.30;;;7.60;;
40322;SDS011;26030;51.164;17.100;2023-08-20T22:58:19;8.30;;;7.60;;
40322;SDS011;26030;51.164;17.100;2023-08-20T23:03:22;8.30;;;7.50;;
40322;SDS011;26030;51.164;17.100;2023-08-20T23:08:26;7.80;;;7.20;;
40322;SDS011;26030;51.164;17.100;2023-08-20T23:13:29;8.40;;;7.70;;
40322;SDS011;26030;51.164;17.100;2023-08-20T23:18:32;9.30;;;7.90;;
40322;SDS011;26030;51.164;17.100;2023-08-20T23:23:35;9.00;;;8.30;;
40322;SDS011;26030;51.164;17.100;2023-08-20T23:28:38;8.60;;;7.80;;
40322;SDS011;26030;51.164;17.100;2023-08-20T23:33:41;8.70;;;7.90;;
40322;SDS011;26030;51.164;17.100;2023-08-20T23:38:44;9.00;;;8.30;;
40322;SDS011;26030;51.164;17.100;2023-08-20T23:43:47;8.70;;;8.00;;
40322;SDS011;26030;51.164;17.100;2023-08-20T23:48:52;8.60;;;7.90;;
40322;SDS011;26030;51.164;17.100;2023-08-20T23:53:55;8.60;;;7.80;;
40322;SDS011;26030;51.164;17.100;2023-08-20T23:58:58;8.70;;;7.70;;
